Time;durP1;ratioP1;P1;durP2;ratioP2;P2;SDS_P1;SDS_P2;PMS_P1;PMS_P2;Temp;Humidity;BMP_temperature;BMP_pressure;BME280_temperature;BME280_humidity;BME280_pressure;Samples;Min_cycle;Max_cycle;Signal;HPM_P1;HPM_P2
2023/06/13 00:02:07;;;;;;;;;;;20.30;33.20;;;16.44;47.34;94949.91;4963292;28;19953;-52
2023/06/13 00:04:33;;;;;;;;;;;20.20;33.20;;;16.37;47.39;94954.97;4953315;28;20012;-53
2023/06/13 00:06:59;;;;;;;;;;;20.20;33.30;;;16.33;47.31;94948.66;4953580;28;19910;-52
2023/06/13 00:09:26;;;;;;;;;;;20.10;33.30;;;16.29;47.23;94947.69;4935312;28;20045;-48
2023/06/13 00:11:52;;;;;;;;;;;20.10;33.40;;;16.28;47.53;94938.06;4951696;29;19942;-53
2023/06/13 00:14:21;;;;;;;;;;;20.10;33.40;;;16.25;47.56;94936.00;4943355;28;19965;-52
2023/06/13 00:16:48;;;;;;;;;;;20.00;33.40;;;16.19;47.60;94944.19;4952005;29;20025;-53
2023/06/13 00:19:14;;;;;;;;;;;20.00;33.50;;;16.18;47.68;94928.41;4952084;28;20069;-49
2023/06/13 00:21:41;;;;;;;;;;;20.00;33.60;;;16.13;48.09;94933.94;4967191;28;19914;-49
2023/06/13 00:24:07;;;;;;;;;;;19.90;33.60;;;16.08;48.03;94932.19;4953544;28;19910;-50
2023/06/13 00:26:34;;;;;;;;;;;19.90;33.70;;;16.05;48.20;94930.16;4961873;28;19997;-53
2023/06/13 00:29:00;;;;;;;;;;;19.90;33.80;;;16.00;48.32;94924.91;4953772;28;20021;-53
2023/06/13 00:31:28;;;;;;;;;;;19.80;33.90;;;15.94;48.46;94920.78;4949180;28;20064;-50
2023/06/13 00:33:58;;;;;;;;;;;19.80;34.10;;;15.90;48.24;94911.78;4946348;29;19910;-49
2023/06/13 00:36:27;;;;;;;;;;;19.70;34.20;;;15.89;48.24;94900.25;4953252;28;19933;-49
2023/06/13 00:38:55;;;;;;;;;;;19.70;34.30;;;15.87;48.05;94894.41;4961466;28;19910;-50
2023/06/13 00:41:20;;;;;;;;;;;19.70;34.40;;;15.87;48.07;94899.00;4953500;28;20305;-51
2023/06/13 00:43:46;;;;;;;;;;;19.60;34.40;;;15.88;47.88;94897.88;4946611;29;20057;-54
2023/06/13 00:46:24;;;;;;;;;;;19.60;35.10;;;15.82;48.01;94894.53;4942093;29;20005;-51
2023/06/13 00:48:50;;;;;;;;;;;19.60;34.60;;;15.81;48.12;94890.28;4953238;28;20308;-51
2023/06/13 00:51:20;;;;;;;;;;;19.60;34.60;;;15.75;48.12;94891.53;4959801;28;20013;-48
2023/06/13 00:53:48;;;;;;;;;;;19.60;34.70;;;15.71;48.43;94888.69;4951136;28;19917;-51
2023/06/13 00:56:13;;;;;;;;;;;19.50;34.70;;;15.63;48.53;94886.75;4958069;28;19914;-54
2023/06/13 00:58:40;;;;;;;;;;;19.50;34.80;;;15.57;48.56;94884.53;4932939;29;19914;-54
2023/06/13 01:01:09;;;;;;;;;;;19.50;35.00;;;15.52;49.18;94884.69;4933773;29;19911;-51
2023/06/13 01:03:36;;;;;;;;;;;19.40;35.00;;;15.47;49.23;94881.03;4934549;29;19910;-52
2023/06/13 01:06:03;;;;;;;;;;;19.40;35.20;;;15.41;49.42;94884.19;4945126;28;20374;-51
2023/06/13 01:08:30;;;;;;;;;;;19.30;35.10;;;15.40;49.50;94893.34;4931141;29;19964;-52
2023/06/13 01:11:12;;;;;;;;;;;19.30;35.30;;;15.35;49.61;94888.88;4933921;29;20382;-51
2023/06/13 01:14:01;;;;;;;;;;;19.20;35.30;;;15.28;49.80;94891.25;4946151;28;19910;-54
2023/06/13 01:16:56;;;;;;;;;;;19.20;35.30;;;15.22;50.20;94895.16;4935903;28;19922;-48
2023/06/13 01:19:47;;;;;;;;;;;19.10;35.30;;;15.16;50.63;94899.09;4936586;28;19910;-50
2023/06/13 01:22:19;;;;;;;;;;;19.00;35.40;;;15.07;50.64;94892.91;4937220;29;19911;-52
2023/06/13 01:25:26;;;;;;;;;;;19.00;35.40;;;14.96;51.67;94895.06;4948251;28;19910;-50
2023/06/13 01:27:55;;;;;;;;;;;18.90;35.40;;;14.85;52.01;94886.47;4945297;28;19957;-49
2023/06/13 01:30:22;;;;;;;;;;;18.80;35.50;;;14.67;52.96;94887.50;4947914;28;19946;-54
2023/06/13 01:32:51;;;;;;;;;;;18.70;35.50;;;14.49;53.09;94886.56;4947948;28;20399;-48
2023/06/13 01:35:17;;;;;;;;;;;18.60;35.60;;;14.46;53.54;94887.19;4935810;29;19918;-51
2023/06/13 01:37:43;;;;;;;;;;;18.50;35.70;;;14.32;54.05;94890.72;4936153;28;20369;-52
2023/06/13 01:40:10;;;;;;;;;;;18.40;35.80;;;14.25;54.30;94884.97;4936932;29;19964;-54
2023/06/13 01:42:35;;;;;;;;;;;18.30;35.90;;;14.16;54.41;94883.34;4936670;29;19945;-49
2023/06/13 01:45:02;;;;;;;;;;;18.20;36.00;;;14.02;55.50;94880.72;4936296;29;19957;-52
2023/06/13 01:47:58;;;;;;;;;;;18.10;36.10;;;13.97;55.38;94883.50;4936836;29;19911;-54
2023/06/13 01:50:45;;;;;;;;;;;18.00;36.20;;;13.94;55.82;94882.22;4943378;28;20017;-54
2023/06/13 01:53:33;;;;;;;;;;;18.00;36.40;;;13.82;55.92;94888.13;4943226;28;19911;-54
2023/06/13 01:56:03;;;;;;;;;;;17.90;36.60;;;13.77;56.49;94895.47;4925571;28;19911;-54
2023/06/13 01:58:57;;;;;;;;;;;17.80;36.70;;;13.68;56.66;94892.69;4949355;28;19910;-51
2023/06/13 02:01:25;;;;;;;;;;;17.70;37.40;;;13.55;56.99;94897.00;4946397;28;20316;-48
2023/06/13 02:03:51;;;;;;;;;;;17.60;36.80;;;13.41;57.46;94893.53;4935238;28;19918;-52
2023/06/13 02:06:17;;;;;;;;;;;17.50;37.00;;;13.26;58.59;94893.84;4930210;29;20290;-49
2023/06/13 02:08:44;;;;;;;;;;;17.40;37.10;;;13.17;59.07;94893.72;4935313;29;19918;-53
2023/06/13 02:11:11;;;;;;;;;;;17.30;37.20;;;13.07;59.16;94893.91;4936311;29;19910;-49
2023/06/13 02:13:37;;;;;;;;;;;17.20;37.30;;;13.08;60.10;94890.94;4922578;29;20293;-47
2023/06/13 02:16:03;;;;;;;;;;;17.10;37.40;;;13.00;61.05;94888.16;4936206;28;19917;-50
2023/06/13 02:18:30;;;;;;;;;;;17.00;37.60;;;12.86;61.37;94886.28;4923887;29;19911;-52
2023/06/13 02:20:57;;;;;;;;;;;17.00;37.70;;;12.85;61.66;94890.03;4935238;29;19925;-49
2023/06/13 02:23:25;;;;;;;;;;;16.90;37.80;;;12.79;61.55;94891.22;4923243;29;19914;-53
2023/06/13 02:25:51;;;;;;;;;;;16.80;38.00;;;12.79;61.77;94885.88;4934648;29;19910;-53
2023/06/13 02:28:18;;;;;;;;;;;16.80;38.10;;;12.72;61.95;94894.28;4934759;29;19918;-52
2023/06/13 02:30:45;;;;;;;;;;;16.80;38.20;;;12.59;62.39;94889.69;4935758;29;19918;-47
2023/06/13 02:33:13;;;;;;;;;;;16.60;38.30;;;12.46;62.94;94891.22;4934849;28;19942;-51
2023/06/13 02:35:39;;;;;;;;;;;16.60;38.40;;;12.35;63.31;94892.50;4935739;29;19988;-48
2023/06/13 02:38:06;;;;;;;;;;;16.50;38.50;;;12.23;63.71;94892.94;4934773;28;20402;-47
2023/06/13 02:40:32;;;;;;;;;;;16.40;38.70;;;12.13;64.69;94887.00;4935951;28;19956;-49
2023/06/13 02:43:00;;;;;;;;;;;16.30;38.80;;;12.01;64.45;94892.75;4935660;29;19921;-49
2023/06/13 02:45:26;;;;;;;;;;;16.20;39.00;;;11.87;66.75;94891.88;4934642;29;19945;-48
2023/06/13 02:47:52;;;;;;;;;;;16.10;39.10;;;11.75;68.53;94897.63;4935698;29;19966;-51
2023/06/13 02:50:18;;;;;;;;;;;16.00;39.20;;;11.68;68.78;94891.84;4934635;29;19918;-50
2023/06/13 02:52:43;;;;;;;;;;;15.90;39.40;;;11.57;69.79;94888.53;4935473;29;19910;-50
2023/06/13 02:55:10;;;;;;;;;;;15.80;39.60;;;11.50;70.47;94888.91;4935355;29;19914;-48
2023/06/13 02:57:37;;;;;;;;;;;15.70;39.80;;;11.46;70.37;94887.88;4935451;29;19915;-48
2023/06/13 03:00:07;;;;;;;;;;;15.70;40.00;;;11.39;70.02;94891.97;4935562;29;19957;-45
2023/06/13 03:02:36;;;;;;;;;;;15.60;40.10;;;11.31;71.00;94901.38;4936757;28;19910;-44
2023/06/13 03:05:10;;;;;;;;;;;15.50;40.30;;;11.25;71.43;94898.00;4934242;29;19964;-47
2023/06/13 03:07:41;;;;;;;;;;;15.40;41.00;;;11.15;71.70;94903.44;4935086;28;19910;-48
2023/06/13 03:10:07;;;;;;;;;;;15.40;40.60;;;11.11;72.25;94897.09;4935295;28;19911;-50
2023/06/13 03:12:32;;;;;;;;;;;15.30;40.70;;;11.07;72.26;94890.75;4935285;29;19972;-48
2023/06/13 03:14:58;;;;;;;;;;;15.20;40.80;;;11.05;72.21;94895.56;4934394;28;19914;-46
2023/06/13 03:17:24;;;;;;;;;;;15.20;41.00;;;10.98;72.17;94898.56;4935089;29;19914;-46
2023/06/13 03:19:50;;;;;;;;;;;15.10;41.10;;;10.90;72.98;94909.84;4934465;29;19914;-50
2023/06/13 03:22:16;;;;;;;;;;;15.10;41.20;;;10.87;73.21;94910.41;4935082;29;20392;-50
2023/06/13 03:24:44;;;;;;;;;;;15.00;41.40;;;10.83;73.37;94912.84;4935148;29;19910;-48
2023/06/13 03:27:12;;;;;;;;;;;15.00;41.50;;;10.75;73.48;94910.00;4933966;29;19914;-46
2023/06/13 03:29:41;;;;;;;;;;;14.90;41.60;;;10.68;74.54;94909.53;4935003;29;19914;-45
2023/06/13 03:32:11;;;;;;;;;;;14.90;41.70;;;10.62;75.26;94914.09;4934034;29;20266;-47
2023/06/13 03:34:39;;;;;;;;;;;14.80;41.80;;;10.56;75.07;94915.22;4934952;29;19917;-48
2023/06/13 03:37:09;;;;;;;;;;;14.80;42.00;;;10.48;76.26;94921.97;4934950;29;19977;-44
2023/06/13 03:39:35;;;;;;;;;;;14.70;42.00;;;10.45;76.51;94916.41;4940089;28;19918;-48
2023/06/13 03:42:02;;;;;;;;;;;14.70;42.20;;;10.39;76.83;94913.78;4968645;28;19917;-47
2023/06/13 03:44:29;;;;;;;;;;;14.60;42.30;;;10.39;76.58;94916.44;4942739;28;19911;-44
2023/06/13 03:46:56;;;;;;;;;;;14.60;42.40;;;10.41;76.94;94919.63;4948063;28;19917;-46
2023/06/13 03:49:25;;;;;;;;;;;14.60;42.60;;;10.37;77.55;94913.28;4950725;28;19917;-43
2023/06/13 03:51:52;;;;;;;;;;;14.60;42.70;;;10.42;77.33;94921.22;4945850;28;19997;-45
2023/06/13 03:54:21;;;;;;;;;;;14.60;42.80;;;10.45;77.00;94919.06;4953829;28;19993;-44
2023/06/13 03:56:48;;;;;;;;;;;14.60;43.00;;;10.53;75.70;94921.13;4940520;28;20452;-45
2023/06/13 03:59:16;;;;;;;;;;;14.60;43.00;;;10.56;75.54;94918.72;4952183;28;26941;-47
2023/06/13 04:01:43;;;;;;;;;;;14.60;43.10;;;10.59;76.30;94918.16;4951384;28;19910;-45
2023/06/13 04:04:09;;;;;;;;;;;14.70;43.20;;;10.65;75.75;94918.88;4952243;28;19956;-45
2023/06/13 04:06:35;;;;;;;;;;;14.70;43.20;;;10.70;76.17;94926.81;4952654;28;19910;-45
2023/06/13 04:09:04;;;;;;;;;;;14.80;43.30;;;10.72;75.98;94929.19;4946928;28;19910;-47
2023/06/13 04:11:30;;;;;;;;;;;14.80;43.30;;;10.71;76.38;94927.63;4953353;28;20384;-49
2023/06/13 04:13:56;;;;;;;;;;;14.90;43.30;;;10.77;76.71;94926.50;4947487;28;19965;-47
2023/06/13 04:16:22;;;;;;;;;;;14.90;43.40;;;11.02;76.18;94922.78;4949173;29;19914;-45
2023/06/13 04:18:47;;;;;;;;;;;14.90;43.40;;;11.30;74.44;94923.81;4953635;28;19918;-48
2023/06/13 04:21:14;;;;;;;;;;;15.10;43.60;;;11.58;72.39;94922.13;4951547;28;19914;-49
2023/06/13 04:23:41;;;;;;;;;;;15.20;43.60;;;11.84;71.08;94917.25;4968340;28;20102;-47
2023/06/13 04:26:07;;;;;;;;;;;15.30;43.60;;;12.10;70.08;94919.59;4947388;28;19910;-46
2023/06/13 04:28:33;;;;;;;;;;;15.50;43.50;;;12.30;68.90;94915.81;4944774;28;19950;-44
2023/06/13 04:31:03;;;;;;;;;;;15.70;43.50;;;12.54;67.97;94923.72;4968018;28;19941;-44
2023/06/13 04:33:29;;;;;;;;;;;15.90;43.50;;;12.76;67.59;94913.19;4944172;28;19914;-44
2023/06/13 04:36:03;;;;;;;;;;;16.10;43.40;;;12.97;66.51;94910.91;4933959;23;19926;-50
2023/06/13 04:38:34;;;;;;;;;;;16.30;43.90;;;13.19;65.78;94912.91;4913127;29;20061;-46
2023/06/13 04:41:00;;;;;;;;;;;16.60;43.20;;;13.39;64.63;94919.81;4914783;29;19915;-49
2023/06/13 04:43:28;;;;;;;;;;;16.80;43.00;;;13.59;63.72;94913.22;4913662;29;19910;-45
2023/06/13 04:46:03;;;;;;;;;;;17.00;43.00;;;13.78;62.57;94919.25;4914282;29;19911;-51
2023/06/13 04:48:30;;;;;;;;;;;17.20;42.80;;;13.98;62.01;94925.28;4927989;29;20022;-49
2023/06/13 04:50:59;;;;;;;;;;;17.40;42.60;;;14.14;61.55;94923.84;4916956;29;19918;-51
2023/06/13 04:53:29;;;;;;;;;;;17.60;42.50;;;14.33;61.17;94929.03;4916493;29;20346;-49
2023/06/13 04:55:57;;;;;;;;;;;17.90;42.30;;;14.49;60.48;94932.91;4916894;29;19993;-50
2023/06/13 04:58:23;;;;;;;;;;;18.00;42.20;;;14.70;59.93;94935.94;4921170;29;19919;-50
2023/06/13 05:00:52;;;;;;;;;;;18.20;42.00;;;15.02;59.08;94936.75;4919557;29;19911;-54
2023/06/13 05:03:20;;;;;;;;;;;18.40;41.90;;;15.19;58.92;94934.13;4914965;29;19949;-50
2023/06/13 05:05:46;;;;;;;;;;;18.60;41.80;;;15.32;58.75;94942.38;4918217;29;20317;-49
2023/06/13 05:08:19;;;;;;;;;;;18.90;41.60;;;15.40;57.59;94942.44;4916600;29;19958;-52
2023/06/13 05:10:45;;;;;;;;;;;19.10;41.50;;;15.35;57.48;94947.13;4911414;29;19910;-52
2023/06/13 05:13:11;;;;;;;;;;;19.30;41.20;;;15.55;57.60;94948.50;4911614;29;19958;-53
2023/06/13 05:15:39;;;;;;;;;;;19.60;41.10;;;15.71;56.92;94955.03;4916459;29;19910;-51
2023/06/13 05:18:07;;;;;;;;;;;19.80;41.60;;;15.87;55.16;94948.13;4917591;29;19914;-46
2023/06/13 05:20:35;;;;;;;;;;;20.00;40.70;;;16.07;55.07;94935.97;4916526;29;19915;-50
2023/06/13 05:23:01;;;;;;;;;;;20.20;40.50;;;16.27;53.98;94942.63;4917605;29;19915;-51
2023/06/13 05:25:27;;;;;;;;;;;20.40;40.30;;;16.47;53.40;94938.53;4915908;29;19911;-53
2023/06/13 05:27:53;;;;;;;;;;;20.60;40.20;;;16.53;53.54;94947.22;4916741;29;19911;-46
2023/06/13 05:30:21;;;;;;;;;;;20.80;39.90;;;16.69;52.87;94942.13;4917598;29;19966;-49
2023/06/13 05:32:47;;;;;;;;;;;21.00;39.70;;;16.87;52.53;94941.81;4924779;29;20433;-47
2023/06/13 05:35:13;;;;;;;;;;;21.20;39.50;;;17.03;51.77;94942.09;4916889;29;19925;-47
2023/06/13 05:37:39;;;;;;;;;;;21.40;39.30;;;17.18;51.72;94937.31;4916533;29;19918;-47
2023/06/13 05:40:06;;;;;;;;;;;21.60;39.10;;;17.23;50.78;94939.81;4917828;29;19953;-49
2023/06/13 05:42:34;;;;;;;;;;;21.80;38.90;;;17.32;50.25;94943.28;4917460;29;19911;-46
2023/06/13 05:45:06;;;;;;;;;;;21.90;38.60;;;17.41;49.96;94938.66;4930239;29;19911;-51
2023/06/13 05:47:33;;;;;;;;;;;22.10;38.40;;;17.42;49.61;94934.84;4916970;29;20009;-47
2023/06/13 05:49:59;;;;;;;;;;;22.30;38.20;;;17.45;49.50;94938.78;4920688;29;19914;-49
2023/06/13 05:52:26;;;;;;;;;;;22.40;38.00;;;17.43;50.54;94941.03;4921417;29;19910;-47
2023/06/13 05:54:52;;;;;;;;;;;22.60;37.80;;;17.56;49.67;94945.41;4931395;29;20005;-49
2023/06/13 05:57:18;;;;;;;;;;;22.60;37.50;;;17.76;49.69;94944.66;4917270;29;19922;-49
2023/06/13 05:59:44;;;;;;;;;;;22.80;37.40;;;17.95;48.67;94943.47;4916926;29;19910;-47
2023/06/13 06:02:11;;;;;;;;;;;23.00;37.40;;;18.02;49.02;94954.53;4916265;29;20014;-47
2023/06/13 06:04:38;;;;;;;;;;;23.10;37.10;;;18.19;48.41;94949.03;4915369;29;20341;-47
2023/06/13 06:07:05;;;;;;;;;;;23.30;37.00;;;18.27;48.45;94953.56;4916863;29;20010;-49
2023/06/13 06:09:31;;;;;;;;;;;23.50;36.80;;;18.38;48.15;94951.25;4913630;29;19922;-47
2023/06/13 06:11:57;;;;;;;;;;;23.60;36.60;;;18.43;47.28;94939.50;4916656;29;19923;-52
2023/06/13 06:14:23;;;;;;;;;;;23.70;36.30;;;18.56;47.90;94943.84;4914750;29;19915;-48
2023/06/13 06:16:52;;;;;;;;;;;23.90;36.20;;;18.75;46.94;94945.28;4916193;29;19915;-53
2023/06/13 06:19:18;;;;;;;;;;;24.00;36.00;;;18.76;47.20;94944.16;4916017;29;19915;-48
2023/06/13 06:21:44;;;;;;;;;;;24.10;35.70;;;18.90;46.42;94940.06;4916203;29;20357;-50
2023/06/13 06:24:09;;;;;;;;;;;24.20;35.60;;;18.88;46.69;94945.00;4915758;29;20053;-54
2023/06/13 06:26:35;;;;;;;;;;;24.40;35.50;;;18.96;46.42;94943.34;4915081;29;19923;-50
2023/06/13 06:29:01;;;;;;;;;;;24.50;35.30;;;19.10;45.72;94946.50;4916134;29;19915;-49
2023/06/13 06:31:29;;;;;;;;;;;24.60;35.10;;;19.24;45.95;94948.09;4915373;29;19919;-52
2023/06/13 06:33:55;;;;;;;;;;;24.80;35.00;;;19.29;45.53;94947.91;4916381;29;19911;-48
2023/06/13 06:36:25;;;;;;;;;;;25.00;34.90;;;19.29;45.73;94948.69;4915517;29;19922;-48
2023/06/13 06:38:51;;;;;;;;;;;25.10;34.70;;;19.30;46.09;94942.16;4915370;29;20412;-55
2023/06/13 06:41:17;;;;;;;;;;;25.20;34.50;;;19.38;45.89;94954.78;4916030;29;19915;-48
2023/06/13 06:43:43;;;;;;;;;;;25.30;34.30;;;19.73;45.40;94950.91;4914953;29;19914;-48
2023/06/13 06:46:09;;;;;;;;;;;25.40;34.20;;;19.83;44.54;94953.91;4915443;29;19911;-49
2023/06/13 06:48:35;;;;;;;;;;;25.60;34.10;;;20.05;44.29;94954.59;4916156;29;19969;-48
2023/06/13 06:51:01;;;;;;;;;;;25.80;34.00;;;19.97;44.01;94956.28;4914710;29;20009;-48
2023/06/13 06:53:26;;;;;;;;;;;25.90;33.90;;;20.13;43.96;94950.19;4916026;29;20355;-54
2023/06/13 06:55:52;;;;;;;;;;;26.10;33.80;;;20.11;43.84;94943.19;4914597;29;19937;-49
2023/06/13 06:58:18;;;;;;;;;;;26.20;33.50;;;20.30;44.04;94937.19;4915568;29;20705;-50
2023/06/13 07:00:44;;;;;;;;;;;26.30;33.30;;;19.98;44.11;94933.53;4915488;29;19917;-48
2023/06/13 07:03:10;;;;;;;;;;;26.40;33.10;;;20.31;43.96;94944.19;4914714;29;19910;-49
2023/06/13 07:05:35;;;;;;;;;;;26.50;33.00;;;20.64;43.71;94939.72;4915565;29;19958;-48
2023/06/13 07:08:01;;;;;;;;;;;26.70;33.00;;;20.73;42.87;94941.16;4914788;29;19915;-54
2023/06/13 07:10:27;;;;;;;;;;;26.90;32.90;;;20.79;42.82;94939.78;4915761;29;20370;-57
2023/06/13 07:12:52;;;;;;;;;;;26.90;32.70;;;21.04;42.64;94936.94;4914998;29;19911;-51
2023/06/13 07:15:18;;;;;;;;;;;27.10;32.60;;;21.27;41.91;94935.22;4913865;29;20354;-52
2023/06/13 07:17:44;;;;;;;;;;;27.30;32.50;;;21.21;41.69;94936.59;4915524;29;19970;-50
2023/06/13 07:20:11;;;;;;;;;;;27.40;32.30;;;21.36;41.64;94937.00;4914123;29;20334;-49
2023/06/13 07:22:37;;;;;;;;;;;27.60;32.10;;;21.47;41.59;94941.56;4915274;29;20438;-49
2023/06/13 07:25:04;;;;;;;;;;;27.70;32.00;;;21.76;41.48;94930.63;4914641;29;19914;-50
2023/06/13 07:27:30;;;;;;;;;;;27.80;31.90;;;21.98;40.93;94929.19;4921602;29;19921;-54
2023/06/13 07:29:56;;;;;;;;;;;28.00;31.80;;;22.06;40.79;94929.03;4915316;29;19918;-49
2023/06/13 07:32:22;;;;;;;;;;;28.10;31.70;;;22.05;40.81;94923.94;4914444;29;19910;-51
2023/06/13 07:34:49;;;;;;;;;;;28.20;31.40;;;22.04;40.34;94925.88;4914306;29;19930;-54
2023/06/13 07:37:15;;;;;;;;;;;28.40;31.20;;;21.31;42.52;94937.22;4914095;29;20396;-50
2023/06/13 07:39:41;;;;;;;;;;;28.40;31.00;;;21.51;41.52;94930.03;4914564;29;19914;-49
2023/06/13 07:42:07;;;;;;;;;;;28.50;30.90;;;21.62;42.11;94928.34;4914921;29;19911;-50
2023/06/13 07:44:33;;;;;;;;;;;28.50;30.80;;;21.26;41.58;94924.75;4913552;29;19917;-49
2023/06/13 07:46:58;;;;;;;;;;;28.50;30.60;;;21.62;41.12;94931.06;4915173;29;19938;-50
2023/06/13 07:49:24;;;;;;;;;;;28.50;30.50;;;21.73;41.21;94921.28;4914127;29;19917;-52
2023/06/13 07:51:50;;;;;;;;;;;28.60;30.40;;;21.49;41.03;94923.03;4914807;29;19910;-51
2023/06/13 07:54:16;;;;;;;;;;;28.60;30.30;;;21.81;40.15;94914.91;4914237;29;19965;-51
2023/06/13 07:56:44;;;;;;;;;;;28.60;30.20;;;22.06;40.33;94920.06;4913783;29;19937;-48
2023/06/13 07:59:10;;;;;;;;;;;28.70;30.20;;;22.07;40.29;94906.19;4914525;29;19998;-52
2023/06/13 08:01:36;;;;;;;;;;;28.70;30.00;;;21.89;40.13;94911.19;4913958;29;19922;-48
2023/06/13 08:04:03;;;;;;;;;;;28.80;30.00;;;21.65;40.83;94914.09;4913963;29;19910;-52
2023/06/13 08:06:30;;;;;;;;;;;28.80;29.90;;;21.78;40.76;94910.19;4914586;29;20007;-51
2023/06/13 08:08:56;;;;;;;;;;;28.90;29.90;;;22.21;40.70;94916.56;4908939;29;19959;-50
2023/06/13 08:11:21;;;;;;;;;;;28.90;29.90;;;22.35;40.24;94892.47;4906266;29;19919;-49
2023/06/13 08:13:47;;;;;;;;;;;29.00;29.80;;;22.41;39.64;94906.53;4913805;29;19914;-51
2023/06/13 08:16:13;;;;;;;;;;;29.10;29.70;;;22.40;39.12;94903.00;4914079;29;20437;-48
2023/06/13 08:18:39;;;;;;;;;;;29.20;29.60;;;22.76;39.21;94902.97;4914537;29;19966;-52
2023/06/13 08:21:05;;;;;;;;;;;29.30;29.60;;;22.72;38.77;94902.09;4913658;29;20266;-52
2023/06/13 08:23:30;;;;;;;;;;;29.40;29.40;;;22.81;38.77;94916.22;4914408;29;20448;-48
2023/06/13 08:25:56;;;;;;;;;;;29.50;29.40;;;23.22;38.37;94906.56;4916593;29;19918;-50
2023/06/13 08:28:22;;;;;;;;;;;29.60;29.30;;;22.68;38.57;94909.38;4917143;29;19918;-49
2023/06/13 08:30:49;;;;;;;;;;;29.80;29.30;;;23.01;38.05;94903.47;4918408;29;20001;-50
2023/06/13 08:33:15;;;;;;;;;;;29.90;29.20;;;22.75;38.50;94901.38;4931681;29;20433;-47
2023/06/13 08:35:40;;;;;;;;;;;30.00;29.10;;;23.01;39.34;94900.75;4917857;29;20013;-48
2023/06/13 08:38:07;;;;;;;;;;;30.00;28.90;;;22.82;38.68;94904.25;4917131;29;19915;-51
2023/06/13 08:40:32;;;;;;;;;;;30.10;28.90;;;22.80;38.81;94903.81;4918449;29;19998;-47
2023/06/13 08:43:00;;;;;;;;;;;30.10;28.80;;;22.80;38.95;94904.59;4918222;29;20461;-50
2023/06/13 08:45:28;;;;;;;;;;;30.20;28.70;;;23.04;38.05;94900.81;4931244;29;19911;-49
2023/06/13 08:47:54;;;;;;;;;;;30.20;28.70;;;23.46;37.69;94913.53;4918126;29;19910;-49
2023/06/13 08:50:24;;;;;;;;;;;30.30;28.70;;;23.73;38.17;94905.47;4928380;29;20389;-50
2023/06/13 08:52:50;;;;;;;;;;;30.50;28.70;;;24.04;37.16;94904.38;4917113;29;19922;-46
2023/06/13 08:55:22;;;;;;;;;;;30.60;28.70;;;24.38;36.26;94910.69;4916798;29;19981;-53
2023/06/13 08:57:53;;;;;;;;;;;30.80;28.50;;;24.52;36.30;94898.41;4917752;29;19973;-49
2023/06/13 09:00:20;;;;;;;;;;;30.90;28.40;;;24.52;35.40;94912.03;4917830;29;19918;-51
2023/06/13 09:02:46;;;;;;;;;;;31.10;28.30;;;24.49;36.10;94910.84;4916905;29;19934;-53
2023/06/13 09:05:15;;;;;;;;;;;31.20;28.10;;;24.51;35.58;94911.25;4931788;29;19914;-49
2023/06/13 09:07:42;;;;;;;;;;;31.40;28.10;;;24.46;35.98;94906.13;4917195;29;20066;-52
2023/06/13 09:10:12;;;;;;;;;;;31.40;28.00;;;23.86;37.20;94903.34;4920409;29;19917;-49
2023/06/13 09:12:45;;;;;;;;;;;31.50;27.90;;;24.37;36.65;94903.66;4917782;29;20388;-49
2023/06/13 09:15:11;;;;;;;;;;;31.50;27.80;;;24.61;35.96;94890.75;4916160;29;20381;-50
2023/06/13 09:17:38;;;;;;;;;;;31.60;27.80;;;24.80;35.63;94906.94;4917521;29;19922;-52
2023/06/13 09:20:07;;;;;;;;;;;31.60;27.70;;;24.83;36.04;94908.13;4916541;29;19925;-54
2023/06/13 09:22:34;;;;;;;;;;;31.70;27.70;;;24.86;35.35;94902.72;4917719;29;20345;-52
2023/06/13 09:25:01;;;;;;;;;;;31.80;27.60;;;24.87;35.28;94906.22;4916810;29;19915;-52
2023/06/13 09:27:27;;;;;;;;;;;31.90;27.50;;;24.80;35.71;94890.59;4916275;29;20433;-55
2023/06/13 09:29:54;;;;;;;;;;;32.00;27.40;;;25.20;35.28;94899.97;4932046;29;19973;-51
2023/06/13 09:32:22;;;;;;;;;;;32.10;27.40;;;25.26;35.03;94900.41;4916201;29;20291;-51
2023/06/13 09:34:52;;;;;;;;;;;32.10;27.70;;;24.92;35.42;94905.88;4915654;29;19933;-48
2023/06/13 09:37:18;;;;;;;;;;;32.10;27.20;;;25.01;35.64;94898.22;4916008;29;20278;-53
2023/06/13 09:39:51;;;;;;;;;;;32.10;27.10;;;25.13;34.96;94903.44;4916356;29;19918;-51
2023/06/13 09:42:23;;;;;;;;;;;32.20;27.40;;;25.52;34.83;94905.72;4917458;29;20253;-52
2023/06/13 09:44:51;;;;;;;;;;;32.30;27.10;;;25.43;33.96;94894.34;4915540;29;19918;-49
2023/06/13 09:47:22;;;;;;;;;;;32.30;27.10;;;25.38;35.15;94886.50;4931685;29;19982;-52
2023/06/13 09:49:58;;;;;;;;;;;32.40;27.00;;;25.56;34.99;94894.84;4919241;29;19950;-47
2023/06/13 09:52:32;;;;;;;;;;;32.40;27.00;;;25.97;34.23;94898.28;4917440;28;19911;-50
2023/06/13 09:54:58;;;;;;;;;;;32.60;27.00;;;26.01;34.03;94899.09;4924802;28;20075;-53
2023/06/13 09:57:24;;;;;;;;;;;32.60;26.90;;;26.01;34.71;94895.56;4915220;29;20374;-49
2023/06/13 09:59:51;;;;;;;;;;;32.70;26.80;;;26.32;33.34;94872.34;4916786;29;19918;-50
2023/06/13 10:02:22;;;;;;;;;;;32.80;26.90;;;25.89;33.84;94879.53;4929932;29;19914;-52
2023/06/13 10:04:50;;;;;;;;;;;33.00;26.70;;;26.13;34.07;94889.81;4911580;29;20005;-53
2023/06/13 10:07:17;;;;;;;;;;;33.00;26.60;;;26.19;33.03;94879.31;4913481;29;19911;-53
2023/06/13 10:09:43;;;;;;;;;;;33.10;26.50;;;25.49;34.89;94890.13;4913883;29;20325;-49
2023/06/13 10:12:14;;;;;;;;;;;33.20;26.50;;;26.05;33.71;94890.94;4912769;29;19918;-52
2023/06/13 10:14:45;;;;;;;;;;;33.30;26.50;;;25.88;34.07;94892.38;4912382;29;19911;-51
2023/06/13 10:17:18;;;;;;;;;;;33.40;26.50;;;26.22;34.09;94892.19;4916530;29;20359;-54
2023/06/13 10:19:50;;;;;;;;;;;33.40;26.40;;;26.01;33.55;94882.75;4929827;29;19910;-52
2023/06/13 10:22:15;;;;;;;;;;;33.50;26.30;;;25.47;33.96;94878.78;4915052;29;19910;-50
2023/06/13 10:24:42;;;;;;;;;;;33.40;26.10;;;25.76;34.16;94882.53;4915517;29;19918;-53
2023/06/13 10:27:14;;;;;;;;;;;33.40;26.00;;;25.95;33.58;94875.25;4915464;29;19966;-53
2023/06/13 10:30:14;;;;;;;;;;;33.50;25.80;;;26.34;33.15;94877.44;4930926;29;20002;-50
2023/06/13 10:33:17;;;;;;;;;;;33.50;25.90;;;25.69;33.69;94878.97;4916258;29;19934;-52
2023/06/13 10:36:02;;;;;;;;;;;33.50;25.80;;;25.52;34.43;94875.72;4928763;29;19925;-50
2023/06/13 10:38:54;;;;;;;;;;;33.50;25.80;;;26.11;33.83;94872.28;4915274;29;19922;-54
2023/06/13 10:41:51;;;;;;;;;;;33.50;25.80;;;26.19;33.71;94873.84;4910953;29;19918;-51
2023/06/13 10:44:28;;;;;;;;;;;33.70;25.90;;;26.36;33.23;94881.38;4921698;29;19915;-54
2023/06/13 10:46:55;;;;;;;;;;;33.80;25.90;;;26.42;33.46;94877.09;4930310;29;20300;-50
2023/06/13 10:49:21;;;;;;;;;;;33.90;25.80;;;26.65;33.33;94881.50;4914803;29;20432;-49
2023/06/13 10:51:47;;;;;;;;;;;34.00;25.80;;;26.82;33.03;94878.03;4913797;29;19915;-53
2023/06/13 10:54:15;;;;;;;;;;;34.10;25.80;;;27.21;32.70;94875.44;4915500;29;19915;-49
2023/06/13 10:56:43;;;;;;;;;;;34.30;25.80;;;27.07;32.57;94880.06;4930180;28;19956;-51
2023/06/13 10:59:16;;;;;;;;;;;34.50;26.20;;;26.42;33.20;94874.38;4909878;29;19965;-52
2023/06/13 11:01:44;;;;;;;;;;;34.60;25.60;;;26.57;33.31;94880.69;4916102;29;20017;-54
2023/06/13 11:04:19;;;;;;;;;;;34.60;25.50;;;26.62;33.08;94876.81;4920211;29;19922;-52
2023/06/13 11:06:50;;;;;;;;;;;34.60;25.50;;;27.09;32.69;94880.47;4915586;29;19958;-50
2023/06/13 11:09:24;;;;;;;;;;;34.70;25.50;;;26.94;32.81;94868.72;4925907;29;20378;-55
2023/06/13 11:11:54;;;;;;;;;;;34.90;25.60;;;27.18;32.99;94870.75;4903292;29;20301;-49
2023/06/13 11:14:36;;;;;;;;;;;34.90;25.30;;;27.25;32.63;94869.19;4913842;29;19917;-50
2023/06/13 11:17:03;;;;;;;;;;;35.00;25.30;;;27.41;32.49;94858.66;4915562;29;19954;-49
2023/06/13 11:19:34;;;;;;;;;;;35.10;25.70;;;27.81;31.78;94867.66;4914341;29;19911;-51
2023/06/13 11:21:59;;;;;;;;;;;35.20;25.20;;;28.03;31.31;94862.94;4915607;29;19957;-51
2023/06/13 11:24:30;;;;;;;;;;;35.40;25.20;;;28.30;30.93;94861.31;4914963;29;19914;-50